createdAt,value
2022-10-17T00:00:20.684Z,21.06
2022-10-17T00:02:22.433Z,21.04
2022-10-17T00:04:24.315Z,21.13
2022-10-17T00:06:26.096Z,21.13
2022-10-17T00:08:27.916Z,21.14
2022-10-17T00:10:29.702Z,21.14
2022-10-17T00:12:31.801Z,21.09
2022-10-17T00:14:33.481Z,21.08
2022-10-17T00:16:35.890Z,21.09
2022-10-17T00:18:37.593Z,21.15
2022-10-17T00:20:39.249Z,21.11
2022-10-17T00:22:41.023Z,21.11
2022-10-17T00:24:42.768Z,21.11
2022-10-17T00:26:44.505Z,21.14
2022-10-17T00:28:50.076Z,21.13
2022-10-17T00:30:58.853Z,21.10
2022-10-17T00:33:00.588Z,21.09
2022-10-17T00:35:02.450Z,21.07
2022-10-17T00:37:04.143Z,21.10
2022-10-17T00:39:05.930Z,21.14
2022-10-17T00:41:12.989Z,21.12
2022-10-17T00:43:17.605Z,21.14
2022-10-17T00:45:23.508Z,21.08
2022-10-17T00:47:25.241Z,21.09
2022-10-17T00:49:28.727Z,21.07
2022-10-17T00:51:36.818Z,21.09
2022-10-17T00:53:38.802Z,21.06
2022-10-17T00:55:47.699Z,21.06
2022-10-17T00:57:49.486Z,21.08
2022-10-17T00:59:52.750Z,21.05
2022-10-17T01:02:00.344Z,21.06
2022-10-17T01:04:01.976Z,21.04
2022-10-17T01:06:03.708Z,21.04
2022-10-17T01:08:05.621Z,21.05
2022-10-17T01:10:07.570Z,21.02
2022-10-17T01:12:16.214Z,21.03
2022-10-17T01:14:51.906Z,21.03
2022-10-17T01:17:02.585Z,21.02
2022-10-17T01:19:37.540Z,21.00
2022-10-17T01:22:06.085Z,21.00
2022-10-17T01:24:14.996Z,21.01
2022-10-17T01:26:38.304Z,21.03
2022-10-17T01:29:01.510Z,21.05
2022-10-17T01:31:31.866Z,21.03
2022-10-17T01:33:51.762Z,21.02
2022-10-17T01:36:03.278Z,21.04
2022-10-17T01:38:35.614Z,21.02
2022-10-17T01:40:54.861Z,21.00
2022-10-17T01:43:04.506Z,21.01
2022-10-17T01:45:13.724Z,21.00
2022-10-17T01:47:20.719Z,21.04
2022-10-17T01:49:24.063Z,21.02
2022-10-17T01:51:29.229Z,21.04
2022-10-17T01:53:37.200Z,21.03
2022-10-17T01:55:41.172Z,21.02
2022-10-17T01:58:10.101Z,21.03
2022-10-17T02:00:15.103Z,21.04
2022-10-17T02:02:16.762Z,21.06
2022-10-17T02:04:18.460Z,21.07
2022-10-17T02:06:20.128Z,21.03
2022-10-17T02:08:29.987Z,21.05
2022-10-17T02:10:40.709Z,21.04
2022-10-17T02:12:51.454Z,21.05
2022-10-17T02:14:56.170Z,21.07
2022-10-17T02:17:00.783Z,21.07
2022-10-17T02:19:10.200Z,21.09
2022-10-17T02:21:18.399Z,21.03
2022-10-17T02:23:49.851Z,21.04
2022-10-17T02:26:05.524Z,21.03
2022-10-17T02:28:19.219Z,21.06
2022-10-17T02:30:29.319Z,21.03
2022-10-17T02:32:37.128Z,21.08
2022-10-17T02:34:43.123Z,21.04
2022-10-17T02:36:56.362Z,21.02
2022-10-17T02:38:58.040Z,20.99
2022-10-17T02:40:59.803Z,21.03
2022-10-17T02:43:01.628Z,20.99
2022-10-17T02:45:03.873Z,21.04
2022-10-17T02:47:11.470Z,21.01
2022-10-17T02:49:22.634Z,21.00
2022-10-17T02:51:27.162Z,21.03
2022-10-17T02:53:33.487Z,21.03
2022-10-17T02:55:38.839Z,21.02
2022-10-17T02:57:49.815Z,21.01
2022-10-17T02:59:51.529Z,21.03
2022-10-17T03:01:53.231Z,21.02
2022-10-17T03:04:11.895Z,21.04
2022-10-17T03:06:13.642Z,21.05
2022-10-17T03:08:15.515Z,21.05
2022-10-17T03:10:17.490Z,21.05
2022-10-17T03:12:19.180Z,21.12
2022-10-17T03:14:20.964Z,21.11
2022-10-17T03:16:22.672Z,21.11
2022-10-17T03:18:24.384Z,21.14
2022-10-17T03:20:26.145Z,21.15
2022-10-17T03:22:28.211Z,21.18
2022-10-17T03:24:30.146Z,21.16
2022-10-17T03:26:31.918Z,21.19
2022-10-17T03:28:34.146Z,21.20
2022-10-17T03:30:37.967Z,21.19
2022-10-17T03:32:39.693Z,21.21
2022-10-17T03:34:41.426Z,21.22
2022-10-17T03:36:43.209Z,21.19
2022-10-17T03:38:45.140Z,21.19
2022-10-17T03:40:55.130Z,21.15
2022-10-17T03:42:56.849Z,21.18
2022-10-17T03:44:58.602Z,21.25
2022-10-17T03:47:00.363Z,21.20
2022-10-17T03:49:02.150Z,21.14
2022-10-17T03:51:05.959Z,21.16
2022-10-17T03:53:07.846Z,21.08
2022-10-17T03:55:09.651Z,21.04
2022-10-17T03:57:11.294Z,21.04
2022-10-17T03:59:14.079Z,21.01
2022-10-17T04:01:16.689Z,20.99
2022-10-17T04:03:18.883Z,21.00
2022-10-17T04:05:20.533Z,20.96
2022-10-17T04:07:22.357Z,20.96
2022-10-17T04:09:24.073Z,20.96
2022-10-17T04:11:25.749Z,21.05
2022-10-17T04:13:27.918Z,21.14
2022-10-17T04:15:29.622Z,21.19
2022-10-17T04:17:35.909Z,21.23
2022-10-17T04:19:39.998Z,21.22
2022-10-17T04:21:41.726Z,21.20
2022-10-17T04:23:43.412Z,21.27
2022-10-17T04:25:45.111Z,21.35
2022-10-17T04:27:46.839Z,21.33
2022-10-17T04:29:48.587Z,21.39
2022-10-17T04:31:50.322Z,21.35
2022-10-17T04:33:51.935Z,21.23
2022-10-17T04:35:57.529Z,21.20
2022-10-17T04:37:59.319Z,21.17
2022-10-17T04:40:01.030Z,21.16
2022-10-17T04:42:02.771Z,21.08
2022-10-17T04:44:04.473Z,21.10
2022-10-17T04:46:09.539Z,21.07
2022-10-17T04:48:11.211Z,21.06
2022-10-17T04:50:12.865Z,21.05
2022-10-17T04:52:14.558Z,21.04
2022-10-17T04:54:16.313Z,21.02
2022-10-17T04:56:19.600Z,21.00
2022-10-17T04:58:21.519Z,20.97
2022-10-17T05:00:23.184Z,20.96
2022-10-17T05:02:24.945Z,20.96
2022-10-17T05:04:26.686Z,20.95
2022-10-17T05:06:28.405Z,20.98
2022-10-17T05:08:30.044Z,20.98
2022-10-17T05:10:42.512Z,20.94
2022-10-17T05:12:44.137Z,20.95
2022-10-17T05:14:45.762Z,20.99
2022-10-17T05:16:47.423Z,20.94
2022-10-17T05:18:52.829Z,20.95
2022-10-17T05:20:55.017Z,20.97
2022-10-17T05:22:59.223Z,20.96
2022-10-17T05:25:00.935Z,20.89
2022-10-17T05:27:02.611Z,20.83
2022-10-17T05:29:04.397Z,20.82
2022-10-17T05:31:06.499Z,20.79
2022-10-17T05:33:08.187Z,20.81
2022-10-17T05:35:09.853Z,20.85
2022-10-17T05:37:11.501Z,20.87
2022-10-17T05:39:13.657Z,20.85
2022-10-17T05:41:15.347Z,20.90
2022-10-17T05:43:16.995Z,20.92
2022-10-17T05:45:18.739Z,20.90
2022-10-17T05:47:20.465Z,20.93
2022-10-17T05:49:32.495Z,20.95
2022-10-17T05:51:34.921Z,20.93
2022-10-17T05:53:40.072Z,20.91
2022-10-17T05:55:41.727Z,20.91
2022-10-17T05:57:43.363Z,20.95
2022-10-17T05:59:45.059Z,20.92
2022-10-17T06:01:46.927Z,20.94
2022-10-17T06:03:48.665Z,20.94
2022-10-17T06:05:50.327Z,20.95
2022-10-17T06:07:52.008Z,20.95
2022-10-17T06:09:53.737Z,20.94
2022-10-17T06:11:55.428Z,20.87
2022-10-17T06:13:57.087Z,20.89
2022-10-17T06:15:58.747Z,20.83
2022-10-17T06:18:00.431Z,20.73
2022-10-17T06:20:02.263Z,20.66
2022-10-17T06:22:03.934Z,20.77
2022-10-17T06:24:05.651Z,20.82
2022-10-17T06:26:07.360Z,20.81
2022-10-17T06:28:09.246Z,20.80
2022-10-17T06:30:10.917Z,20.75
2022-10-17T06:32:14.994Z,20.69
2022-10-17T06:34:16.843Z,20.69
2022-10-17T06:36:18.972Z,20.75
2022-10-17T06:38:20.684Z,20.75
2022-10-17T06:40:22.331Z,20.77
2022-10-17T06:42:24.055Z,20.79
2022-10-17T06:44:25.729Z,20.69
2022-10-17T06:46:27.455Z,20.74
2022-10-17T06:48:29.259Z,20.74
2022-10-17T06:50:30.888Z,20.79
2022-10-17T06:52:32.611Z,20.82
2022-10-17T06:54:34.367Z,20.77
2022-10-17T06:56:36.062Z,20.76
2022-10-17T06:58:38.737Z,20.77
2022-10-17T07:00:40.472Z,20.78
2022-10-17T07:02:43.169Z,20.79
2022-10-17T07:04:46.288Z,20.76
2022-10-17T07:06:47.996Z,20.80
2022-10-17T07:08:49.804Z,20.79
2022-10-17T07:10:51.589Z,20.81
2022-10-17T07:12:53.251Z,20.69
2022-10-17T07:14:54.967Z,20.69
2022-10-17T07:16:56.627Z,20.71
2022-10-17T07:18:58.243Z,20.72
2022-10-17T07:20:59.980Z,20.70
2022-10-17T07:23:01.626Z,20.53
2022-10-17T07:25:04.113Z,20.49
2022-10-17T07:27:05.738Z,20.62
2022-10-17T07:29:07.460Z,20.51
2022-10-17T07:31:14.002Z,20.46
2022-10-17T07:33:15.611Z,20.54
2022-10-17T07:35:17.252Z,20.57
2022-10-17T07:37:18.943Z,20.62
2022-10-17T07:39:20.649Z,20.63
2022-10-17T07:41:23.502Z,20.67
2022-10-17T07:43:25.516Z,20.68
2022-10-17T07:45:27.150Z,20.67
2022-10-17T07:47:28.997Z,20.69
2022-10-17T07:49:30.935Z,20.72
2022-10-17T07:51:32.799Z,20.74
2022-10-17T07:53:38.307Z,20.73
2022-10-17T07:55:40.765Z,20.70
2022-10-17T07:57:42.408Z,20.69
2022-10-17T07:59:44.031Z,20.64
2022-10-17T08:01:45.714Z,20.62
2022-10-17T08:03:47.600Z,20.67
2022-10-17T08:05:49.250Z,20.67
2022-10-17T08:07:50.911Z,20.68
2022-10-17T08:09:52.620Z,20.65
2022-10-17T08:11:54.376Z,20.62
2022-10-17T08:13:56.092Z,20.65
2022-10-17T08:16:05.647Z,20.68
2022-10-17T08:18:07.377Z,20.69
2022-10-17T08:20:09.992Z,20.67
2022-10-17T08:22:11.683Z,20.66
2022-10-17T08:24:13.357Z,20.65
2022-10-17T08:26:15.031Z,20.66
2022-10-17T08:28:16.688Z,20.68
2022-10-17T08:30:18.431Z,20.67
2022-10-17T08:32:23.413Z,20.67
2022-10-17T08:34:25.056Z,20.69
2022-10-17T08:36:26.717Z,20.73
2022-10-17T08:38:35.117Z,20.77
2022-10-17T08:40:37.353Z,20.69
2022-10-17T08:43:18.608Z,20.73
2022-10-17T08:45:41.136Z,20.68
2022-10-17T08:47:48.401Z,20.66
2022-10-17T08:49:57.293Z,20.68
2022-10-17T08:52:04.461Z,20.71
2022-10-17T08:54:22.731Z,20.66
2022-10-17T08:56:49.850Z,20.65
2022-10-17T08:58:48.248Z,20.67
2022-10-17T09:01:25.558Z,20.68
2022-10-17T09:03:54.216Z,20.72
2022-10-17T09:06:23.135Z,20.71
2022-10-17T09:08:46.611Z,20.72
2022-10-17T09:11:00.194Z,20.69
2022-10-17T09:13:08.038Z,20.69
2022-10-17T09:15:36.655Z,20.66
2022-10-17T09:18:02.267Z,20.64
2022-10-17T09:20:19.951Z,20.66
2022-10-17T09:22:25.467Z,20.63
2022-10-17T09:24:41.770Z,20.59
2022-10-17T09:26:45.178Z,20.66
2022-10-17T09:28:52.193Z,20.59
2022-10-17T09:31:06.762Z,20.54
2022-10-17T09:33:53.308Z,20.61
2022-10-17T09:35:57.095Z,20.52
2022-10-17T09:37:58.809Z,20.47
2022-10-17T09:40:00.476Z,20.48
2022-10-17T09:42:02.225Z,20.39
2022-10-17T09:44:12.819Z,20.37
2022-10-17T09:46:37.380Z,20.38
2022-10-17T09:48:42.591Z,20.50
2022-10-17T09:50:44.513Z,20.42
2022-10-17T09:52:46.319Z,20.35
2022-10-17T09:55:15.336Z,20.41
2022-10-17T09:57:18.059Z,20.42
2022-10-17T09:59:36.627Z,20.33
2022-10-17T10:01:38.409Z,20.35
2022-10-17T10:03:40.301Z,20.07
2022-10-17T10:05:42.762Z,20.12
2022-10-17T10:07:46.332Z,20.14
2022-10-17T10:09:48.972Z,20.20
2022-10-17T10:11:52.310Z,20.18
2022-10-17T10:13:54.009Z,20.24
2022-10-17T10:16:12.391Z,20.23
2022-10-17T10:18:26.187Z,20.18
2022-10-17T10:20:36.155Z,20.16
2022-10-17T10:22:37.931Z,20.18
2022-10-17T10:24:39.539Z,20.24
2022-10-17T10:26:46.212Z,20.26
2022-10-17T10:29:02.140Z,20.35
2022-10-17T10:31:05.730Z,20.28
2022-10-17T10:33:10.714Z,20.21
2022-10-17T10:35:23.263Z,20.24
2022-10-17T10:37:38.935Z,20.23
2022-10-17T10:39:47.107Z,20.21
2022-10-17T10:41:49.143Z,20.27
2022-10-17T10:43:51.661Z,20.21
2022-10-17T10:45:53.435Z,20.20
2022-10-17T10:48:01.535Z,20.17
2022-10-17T10:50:24.396Z,20.17
2022-10-17T10:52:35.440Z,20.19
2022-10-17T10:54:43.382Z,20.22
2022-10-17T10:56:48.787Z,20.15
2022-10-17T10:59:03.412Z,20.20
2022-10-17T11:01:25.661Z,20.14
2022-10-17T11:03:33.009Z,20.22
2022-10-17T11:05:49.667Z,20.17
2022-10-17T11:07:59.627Z,20.17
2022-10-17T11:10:12.804Z,20.17
2022-10-17T11:12:27.514Z,20.07
2022-10-17T11:15:06.671Z,20.01
2022-10-17T11:17:10.846Z,20.07
2022-10-17T11:19:15.362Z,20.09
2022-10-17T11:21:37.105Z,20.08
2022-10-17T11:23:43.263Z,20.04
2022-10-17T11:25:44.909Z,20.08
2022-10-17T11:27:46.622Z,20.10
2022-10-17T11:29:48.287Z,20.20
2022-10-17T11:31:51.244Z,20.14
2022-10-17T11:33:54.702Z,20.15
2022-10-17T11:36:00.165Z,20.17
2022-10-17T11:38:04.342Z,20.09
2022-10-17T11:40:24.468Z,20.07
2022-10-17T11:42:29.302Z,20.08
2022-10-17T11:44:38.447Z,20.11
2022-10-17T11:46:40.106Z,20.17
2022-10-17T11:48:45.511Z,20.18
2022-10-17T11:53:23.278Z,20.14
2022-10-17T11:55:26.661Z,20.17
2022-10-17T11:57:43.139Z,20.14
2022-10-17T11:59:57.052Z,20.14
2022-10-17T12:02:03.916Z,20.10
2022-10-17T12:04:14.719Z,20.05
2022-10-17T12:06:36.547Z,20.08
2022-10-17T12:08:49.928Z,20.22
2022-10-17T12:11:28.846Z,20.23
2022-10-17T12:13:33.254Z,20.27
2022-10-17T12:15:34.972Z,20.18
2022-10-17T12:17:37.013Z,20.18
2022-10-17T12:19:38.733Z,20.23
2022-10-17T12:22:14.138Z,20.27
2022-10-17T12:24:31.806Z,20.14
2022-10-17T12:26:34.458Z,20.11
2022-10-17T12:28:46.729Z,20.09
2022-10-17T12:30:58.474Z,20.16
2022-10-17T12:33:12.304Z,20.16
2022-10-17T12:35:19.934Z,20.20
2022-10-17T12:37:43.224Z,20.17
2022-10-17T12:39:44.891Z,20.12
2022-10-17T12:41:46.541Z,20.37
2022-10-17T12:43:55.452Z,20.70
2022-10-17T12:46:01.050Z,20.98
2022-10-17T12:48:03.287Z,21.00
2022-10-17T12:50:28.607Z,21.18
2022-10-17T12:52:33.235Z,21.34
2022-10-17T12:54:47.958Z,21.46
2022-10-17T12:57:01.517Z,21.43
2022-10-17T12:59:16.960Z,21.53
2022-10-17T13:01:24.799Z,21.48
2022-10-17T13:03:29.119Z,21.50
2022-10-17T13:05:32.915Z,21.57
2022-10-17T13:07:35.379Z,21.41
2022-10-17T13:09:38.531Z,21.46
2022-10-17T13:11:40.683Z,21.53
2022-10-17T13:13:49.265Z,21.53
2022-10-17T13:15:52.707Z,21.59
2022-10-17T13:17:59.141Z,21.51
2022-10-17T13:20:00.783Z,21.53
2022-10-17T13:22:06.701Z,21.55
2022-10-17T13:24:27.653Z,21.55
2022-10-17T13:26:29.307Z,21.53
2022-10-17T13:28:31.869Z,21.57
2022-10-17T13:30:36.205Z,21.60
2022-10-17T13:32:39.195Z,21.60
2022-10-17T13:34:40.941Z,21.49
2022-10-17T13:36:45.512Z,21.56
2022-10-17T13:38:50.311Z,21.58
2022-10-17T13:40:57.925Z,21.54
2022-10-17T13:43:03.591Z,21.41
2022-10-17T13:45:10.510Z,21.39
2022-10-17T13:47:23.018Z,21.21
2022-10-17T13:49:35.267Z,21.20
2022-10-17T13:51:36.927Z,21.19
2022-10-17T13:53:39.486Z,21.11
2022-10-17T13:56:09.776Z,21.25
2022-10-17T13:58:19.292Z,21.39
2022-10-17T14:00:21.633Z,21.53
2022-10-17T14:02:24.625Z,21.78
2022-10-17T14:04:26.322Z,22.02
2022-10-17T14:06:28.203Z,22.27
2022-10-17T14:08:30.210Z,22.47
2022-10-17T14:10:37.474Z,22.58
2022-10-17T14:12:39.140Z,22.82
2022-10-17T14:14:58.384Z,22.89
2022-10-17T14:17:02.781Z,22.95
2022-10-17T14:19:05.020Z,22.95
2022-10-17T14:23:31.898Z,22.91
2022-10-17T14:25:38.525Z,22.87
2022-10-17T14:27:54.484Z,22.91
2022-10-17T14:29:57.646Z,22.84
2022-10-17T14:32:04.684Z,22.84
2022-10-17T14:34:06.363Z,23.20
2022-10-17T14:36:08.042Z,23.19
2022-10-17T14:38:12.634Z,23.20
2022-10-17T14:40:19.022Z,23.61
2022-10-17T14:42:21.603Z,23.36
2022-10-17T14:44:29.006Z,23.54
2022-10-17T14:46:30.683Z,23.13
2022-10-17T14:48:32.665Z,23.02
2022-10-17T14:50:34.396Z,22.96
2022-10-17T14:52:36.458Z,22.92
2022-10-17T14:54:38.261Z,22.89
2022-10-17T14:56:43.217Z,22.87
2022-10-17T14:58:45.021Z,22.93
2022-10-17T15:00:46.694Z,22.98
2022-10-17T15:02:49.134Z,22.88
2022-10-17T15:04:51.005Z,22.70
2022-10-17T15:06:55.733Z,22.58
2022-10-17T15:08:57.743Z,22.59
2022-10-17T15:10:59.445Z,22.53
2022-10-17T15:13:26.577Z,22.53
2022-10-17T15:15:23.496Z,22.51
2022-10-17T15:17:30.368Z,22.55
2022-10-17T15:19:32.126Z,22.55
2022-10-17T15:21:39.614Z,22.49
2022-10-17T15:23:44.932Z,22.43
2022-10-17T15:25:46.581Z,22.38
2022-10-17T15:27:48.228Z,22.37
2022-10-17T15:29:50.165Z,22.30
2022-10-17T15:31:51.830Z,22.32
2022-10-17T15:33:53.647Z,22.30
2022-10-17T15:35:55.408Z,22.29
2022-10-17T15:37:57.149Z,22.29
2022-10-17T15:39:58.799Z,22.28
2022-10-17T15:42:00.478Z,22.26
2022-10-17T15:44:02.152Z,22.20
2022-10-17T15:46:03.853Z,22.21
2022-10-17T15:48:06.758Z,22.34
2022-10-17T15:50:11.139Z,22.47
2022-10-17T15:52:12.609Z,23.52
2022-10-17T15:54:14.364Z,23.58
2022-10-17T15:56:24.120Z,23.86
2022-10-17T15:58:25.768Z,23.92
2022-10-17T16:00:27.519Z,24.30
2022-10-17T16:02:29.560Z,24.41
2022-10-17T16:04:31.802Z,24.37
2022-10-17T16:06:33.454Z,24.63
2022-10-17T16:08:35.100Z,24.15
2022-10-17T16:10:37.646Z,23.93
2022-10-17T16:12:39.470Z,23.90
2022-10-17T16:14:41.257Z,23.89
2022-10-17T16:16:43.198Z,23.87
2022-10-17T16:18:44.866Z,23.91
2022-10-17T16:20:46.857Z,23.99
2022-10-17T16:22:48.534Z,23.96
2022-10-17T16:24:50.336Z,24.04
2022-10-17T16:26:52.215Z,24.16
2022-10-17T16:28:53.929Z,24.12
2022-10-17T16:30:55.752Z,24.02
2022-10-17T16:32:58.782Z,24.15
2022-10-17T16:35:00.616Z,24.11
2022-10-17T16:37:02.378Z,24.93
2022-10-17T16:39:04.139Z,25.30
2022-10-17T16:41:09.295Z,25.50
2022-10-17T16:43:12.344Z,25.69
2022-10-17T16:45:19.153Z,25.66
2022-10-17T16:47:21.017Z,25.64
2022-10-17T16:49:22.721Z,25.42
2022-10-17T16:51:24.597Z,25.13
2022-10-17T16:53:26.393Z,25.33
2022-10-17T16:55:28.168Z,25.43
2022-10-17T16:57:29.978Z,25.59
2022-10-17T16:59:31.736Z,25.51
2022-10-17T17:01:33.381Z,25.63
2022-10-17T17:03:39.112Z,25.71
2022-10-17T17:05:40.865Z,25.65
2022-10-17T17:07:43.223Z,25.63
2022-10-17T17:09:44.983Z,25.67
2022-10-17T17:11:46.832Z,25.66
2022-10-17T17:13:48.488Z,25.69
2022-10-17T17:15:50.455Z,25.72
2022-10-17T17:17:55.324Z,25.67
2022-10-17T17:19:59.011Z,25.68
2022-10-17T17:22:00.731Z,25.61
2022-10-17T17:24:03.035Z,25.57
2022-10-17T17:26:09.327Z,25.59
2022-10-17T17:28:11.076Z,25.50
2022-10-17T17:30:12.752Z,25.86
2022-10-17T17:32:14.452Z,25.69
2022-10-17T17:34:18.135Z,25.46
2022-10-17T17:36:22.524Z,25.50
2022-10-17T17:38:24.399Z,25.71
2022-10-17T17:40:26.084Z,25.58
2022-10-17T17:42:27.834Z,25.46
2022-10-17T17:44:29.571Z,25.49
2022-10-17T17:46:32.634Z,25.84
2022-10-17T17:48:36.818Z,24.42
2022-10-17T17:50:39.350Z,23.75
2022-10-17T17:52:41.037Z,23.46
2022-10-17T17:54:42.708Z,23.33
2022-10-17T17:56:44.493Z,23.24
2022-10-17T17:58:48.254Z,23.19
2022-10-17T18:00:49.986Z,23.17
2022-10-17T18:02:51.700Z,23.16
2022-10-17T18:04:53.421Z,23.14
2022-10-17T18:06:55.257Z,23.07
2022-10-17T18:08:57.922Z,22.95
2022-10-17T18:10:59.615Z,22.76
2022-10-17T18:13:01.370Z,22.61
2022-10-17T18:15:03.612Z,22.52
2022-10-17T18:17:05.327Z,22.55
2022-10-17T18:19:08.034Z,22.45
2022-10-17T18:21:10.517Z,22.35
2022-10-17T18:23:12.258Z,22.27
2022-10-17T18:25:15.026Z,22.19
2022-10-17T18:27:18.941Z,22.17
2022-10-17T18:29:21.069Z,22.15
2022-10-17T18:31:24.363Z,22.22
2022-10-17T18:33:26.032Z,22.25
2022-10-17T18:35:27.727Z,22.18
2022-10-17T18:37:29.439Z,22.11
2022-10-17T18:39:31.134Z,22.03
2022-10-17T18:41:32.984Z,22.01
2022-10-17T18:43:38.753Z,22.50
2022-10-17T18:45:40.451Z,22.60
2022-10-17T18:47:44.418Z,22.27
2022-10-17T18:49:46.091Z,22.13
2022-10-17T18:51:47.830Z,21.98
2022-10-17T18:53:54.303Z,22.01
2022-10-17T18:55:56.059Z,22.06
2022-10-17T18:57:57.739Z,21.95
2022-10-17T18:59:59.597Z,21.88
2022-10-17T19:02:01.358Z,21.84
2022-10-17T19:04:03.037Z,21.82
2022-10-17T19:06:06.888Z,21.78
2022-10-17T19:08:08.569Z,21.72
2022-10-17T19:10:10.239Z,21.73
2022-10-17T19:12:11.921Z,21.71
2022-10-17T19:14:13.803Z,21.65
2022-10-17T19:16:17.998Z,21.63
2022-10-17T19:18:19.696Z,21.67
2022-10-17T19:20:21.374Z,21.64
2022-10-17T19:22:23.072Z,21.63
2022-10-17T19:24:25.847Z,21.62
2022-10-17T19:26:28.666Z,21.60
2022-10-17T19:28:30.404Z,21.57
2022-10-17T19:30:32.215Z,21.57
2022-10-17T19:32:34.287Z,21.57
2022-10-17T19:34:36.650Z,21.61
2022-10-17T19:36:38.535Z,21.52
2022-10-17T19:38:40.270Z,21.46
2022-10-17T19:40:42.027Z,21.48
2022-10-17T19:42:43.776Z,21.48
2022-10-17T19:44:45.634Z,21.50
2022-10-17T19:46:47.352Z,21.43
2022-10-17T19:48:49.343Z,21.44
2022-10-17T19:50:51.136Z,21.43
2022-10-17T19:52:52.833Z,21.45
2022-10-17T19:54:54.501Z,21.47
2022-10-17T19:56:56.223Z,21.38
2022-10-17T19:58:58.068Z,21.34
2022-10-17T20:01:00.051Z,21.40
2022-10-17T20:03:01.852Z,21.37
2022-10-17T20:05:18.024Z,21.39
2022-10-17T20:07:20.028Z,21.38
2022-10-17T20:09:21.715Z,21.36
2022-10-17T20:11:24.837Z,21.36
2022-10-17T20:13:26.522Z,21.38
2022-10-17T20:15:28.204Z,21.36
2022-10-17T20:17:31.087Z,21.36
2022-10-17T20:19:34.047Z,21.35
2022-10-17T20:21:35.846Z,21.30
2022-10-17T20:23:38.041Z,21.36
2022-10-17T20:25:39.674Z,21.34
2022-10-17T20:27:41.356Z,21.33
2022-10-17T20:29:43.054Z,21.31
2022-10-17T20:31:45.296Z,21.31
2022-10-17T20:33:46.983Z,21.29
2022-10-17T20:35:48.879Z,21.33
2022-10-17T20:37:50.586Z,21.30
2022-10-17T20:40:10.721Z,21.29
2022-10-17T20:42:14.106Z,21.35
2022-10-17T20:44:15.785Z,21.35
2022-10-17T20:46:34.948Z,21.32
2022-10-17T20:48:37.196Z,21.30
2022-10-17T20:50:38.962Z,21.29
2022-10-17T20:52:40.628Z,21.29
2022-10-17T20:54:42.314Z,21.27
2022-10-17T20:56:44.035Z,21.30
2022-10-17T20:58:45.722Z,21.27
2022-10-17T21:00:47.435Z,21.28
2022-10-17T21:02:49.206Z,21.30
2022-10-17T21:04:51.045Z,21.33
2022-10-17T21:06:52.719Z,21.33
2022-10-17T21:08:54.957Z,21.34
2022-10-17T21:11:26.726Z,21.29
2022-10-17T21:13:28.389Z,21.27
2022-10-17T21:15:30.185Z,21.28
2022-10-17T21:17:31.922Z,21.28
2022-10-17T21:19:33.608Z,21.28
2022-10-17T21:21:36.829Z,21.31
2022-10-17T21:23:38.666Z,21.30
2022-10-17T21:25:40.846Z,21.29
2022-10-17T21:27:42.649Z,21.25
2022-10-17T21:29:44.391Z,21.26
2022-10-17T21:31:46.112Z,21.25
2022-10-17T21:33:53.721Z,21.27
2022-10-17T21:35:55.474Z,21.24
2022-10-17T21:37:57.155Z,21.24
2022-10-17T21:39:58.859Z,21.24
2022-10-17T21:42:00.620Z,21.27
2022-10-17T21:44:07.176Z,21.30
2022-10-17T21:46:16.564Z,21.27
2022-10-17T21:48:18.363Z,21.27
2022-10-17T21:50:20.084Z,21.25
2022-10-17T21:52:21.807Z,21.26
2022-10-17T21:54:23.625Z,21.24
2022-10-17T21:56:26.807Z,21.25
2022-10-17T21:58:28.700Z,21.27
2022-10-17T22:00:30.489Z,21.26
2022-10-17T22:02:32.369Z,21.25
2022-10-17T22:04:34.376Z,21.24
2022-10-17T22:06:40.094Z,21.22
2022-10-17T22:08:42.214Z,21.21
2022-10-17T22:10:43.885Z,21.23
2022-10-17T22:12:45.588Z,21.24
2022-10-17T22:14:47.283Z,21.22
2022-10-17T22:16:49.093Z,21.22
2022-10-17T22:18:50.889Z,21.24
2022-10-17T22:20:52.608Z,21.23
2022-10-17T22:22:54.296Z,21.22
2022-10-17T22:24:56.095Z,21.22
2022-10-17T22:26:57.830Z,21.23
2022-10-17T22:28:59.661Z,21.21
2022-10-17T22:31:01.511Z,21.20
2022-10-17T22:33:03.300Z,21.19
2022-10-17T22:35:05.394Z,21.22
2022-10-17T22:37:07.068Z,21.20
2022-10-17T22:39:09.024Z,21.19
2022-10-17T22:41:10.707Z,21.22
2022-10-17T22:43:13.189Z,21.23
2022-10-17T22:45:15.004Z,21.23
2022-10-17T22:47:16.750Z,21.22
2022-10-17T22:49:18.460Z,21.23
2022-10-17T22:51:20.211Z,21.23
2022-10-17T22:53:22.344Z,21.23
2022-10-17T22:55:24.019Z,21.24
2022-10-17T22:57:25.789Z,21.23
2022-10-17T22:59:27.450Z,21.25
2022-10-17T23:01:29.138Z,21.23
2022-10-17T23:03:31.129Z,21.25
2022-10-17T23:05:32.796Z,21.23
2022-10-17T23:07:34.478Z,21.23
2022-10-17T23:09:36.135Z,21.23
2022-10-17T23:11:37.916Z,21.22
2022-10-17T23:13:39.663Z,21.23
2022-10-17T23:15:41.597Z,21.22
2022-10-17T23:17:43.341Z,21.22
2022-10-17T23:19:45.168Z,21.21
2022-10-17T23:21:46.913Z,21.20
2022-10-17T23:23:48.849Z,21.20
2022-10-17T23:25:50.723Z,21.19
2022-10-17T23:27:52.411Z,21.18
2022-10-17T23:29:54.138Z,21.17
2022-10-17T23:31:56.007Z,21.20
2022-10-17T23:33:58.429Z,21.17
2022-10-17T23:36:03.088Z,21.17
2022-10-17T23:38:04.869Z,21.17
2022-10-17T23:40:06.987Z,21.18
2022-10-17T23:42:08.760Z,21.16
2022-10-17T23:44:11.213Z,21.15
2022-10-17T23:46:12.981Z,21.18
2022-10-17T23:48:14.609Z,21.17
2022-10-17T23:50:16.439Z,21.17
2022-10-17T23:52:18.243Z,21.17
2022-10-17T23:54:20.024Z,21.16
2022-10-17T23:56:21.692Z,21.16
2022-10-17T23:58:23.343Z,21.17
